sensor_id;sensor_type;location;lat;lon;timestamp;pressure;altitude;pressure_sealevel;temperature;humidity
70833;BME280;71099;59.528;17.886;2024-01-30T00:01:00;102124.00;;;2.49;86.85
70833;BME280;71099;59.528;17.886;2024-01-30T00:03:25;102124.75;;;2.51;86.93
70833;BME280;71099;59.528;17.886;2024-01-30T00:05:50;102124.72;;;2.52;86.88
70833;BME280;71099;59.528;17.886;2024-01-30T00:08:16;102128.16;;;2.51;86.82
70833;BME280;71099;59.528;17.886;2024-01-30T00:10:41;102128.56;;;2.39;86.19
70833;BME280;71099;59.528;17.886;2024-01-30T00:13:07;102133.06;;;2.32;86.30
70833;BME280;71099;59.528;17.886;2024-01-30T00:15:32;102128.13;;;2.28;86.26
70833;BME280;71099;59.528;17.886;2024-01-30T00:17:57;102120.75;;;2.20;86.28
70833;BME280;71099;59.528;17.886;2024-01-30T00:20:23;102126.75;;;2.19;86.35
70833;BME280;71099;59.528;17.886;2024-01-30T00:22:49;102125.81;;;2.22;86.57
70833;BME280;71099;59.528;17.886;2024-01-30T00:25:14;102119.88;;;2.21;86.46
70833;BME280;71099;59.528;17.886;2024-01-30T00:27:39;102125.81;;;2.22;86.43
70833;BME280;71099;59.528;17.886;2024-01-30T00:30:05;102125.81;;;2.22;86.33
70833;BME280;71099;59.528;17.886;2024-01-30T00:32:32;102118.44;;;2.14;86.42
70833;BME280;71099;59.528;17.886;2024-01-30T00:34:57;102121.72;;;2.18;86.20
70833;BME280;71099;59.528;17.886;2024-01-30T00:37:23;102127.59;;;2.20;86.26
70833;BME280;71099;59.528;17.886;2024-01-30T00:39:49;102126.69;;;2.21;85.93
70833;BME280;71099;59.528;17.886;2024-01-30T00:42:14;102120.84;;;2.19;85.90
70833;BME280;71099;59.528;17.886;2024-01-30T00:44:40;102119.16;;;2.18;86.05
70833;BME280;71099;59.528;17.886;2024-01-30T00:47:06;102126.03;;;2.16;86.16
70833;BME280;71099;59.528;17.886;2024-01-30T00:49:31;102120.16;;;2.14;86.11
70833;BME280;71099;59.528;17.886;2024-01-30T00:51:56;102118.50;;;2.13;86.17
70833;BME280;71099;59.528;17.886;2024-01-30T00:54:22;102120.97;;;2.14;85.77
70833;BME280;71099;59.528;17.886;2024-01-30T00:56:47;102120.88;;;2.17;86.38
70833;BME280;71099;59.528;17.886;2024-01-30T00:59:13;102114.06;;;2.18;86.22
70833;BME280;71099;59.528;17.886;2024-01-30T01:01:38;102114.91;;;2.18;86.26
70833;BME280;71099;59.528;17.886;2024-01-30T01:04:04;102125.25;;;2.14;86.05
70833;BME280;71099;59.528;17.886;2024-01-30T01:06:29;102129.56;;;2.12;86.21
70833;BME280;71099;59.528;17.886;2024-01-30T01:08:54;102123.59;;;2.13;86.02
70833;BME280;71099;59.528;17.886;2024-01-30T01:11:20;102113.34;;;2.14;86.26
70833;BME280;71099;59.528;17.886;2024-01-30T01:13:45;102120.94;;;2.16;86.24
70833;BME280;71099;59.528;17.886;2024-01-30T01:16:11;102115.97;;;2.13;86.31
70833;BME280;71099;59.528;17.886;2024-01-30T01:18:36;102119.31;;;2.13;86.47
70833;BME280;71099;59.528;17.886;2024-01-30T01:21:01;102121.88;;;2.13;86.17
70833;BME280;71099;59.528;17.886;2024-01-30T01:23:27;102129.47;;;2.15;86.04
70833;BME280;71099;59.528;17.886;2024-01-30T01:25:52;102125.19;;;2.15;86.34
70833;BME280;71099;59.528;17.886;2024-01-30T01:28:18;102118.31;;;2.17;86.54
70833;BME280;71099;59.528;17.886;2024-01-30T01:30:44;102125.94;;;2.19;86.45
70833;BME280;71099;59.528;17.886;2024-01-30T01:33:09;102115.75;;;2.19;86.60
70833;BME280;71099;59.528;17.886;2024-01-30T01:35:35;102121.66;;;2.19;86.40
70833;BME280;71099;59.528;17.886;2024-01-30T01:38:00;102116.63;;;2.18;86.45
70833;BME280;71099;59.528;17.886;2024-01-30T01:40:27;102120.00;;;2.18;86.33
70833;BME280;71099;59.528;17.886;2024-01-30T01:42:53;102117.50;;;2.17;86.41
70833;BME280;71099;59.528;17.886;2024-01-30T01:45:20;102129.34;;;2.18;86.55
70833;BME280;71099;59.528;17.886;2024-01-30T01:47:48;102125.13;;;2.17;86.34
70833;BME280;71099;59.528;17.886;2024-01-30T01:50:16;102127.69;;;2.17;86.47
70833;BME280;71099;59.528;17.886;2024-01-30T01:52:46;102123.53;;;2.14;86.47
70833;BME280;71099;59.528;17.886;2024-01-30T01:55:13;102125.25;;;2.14;86.23
70833;BME280;71099;59.528;17.886;2024-01-30T01:57:38;102120.31;;;2.09;86.51
70833;BME280;71099;59.528;17.886;2024-01-30T02:00:04;102125.47;;;2.08;86.45
70833;BME280;71099;59.528;17.886;2024-01-30T02:02:35;102119.59;;;2.06;86.28
70833;BME280;71099;59.528;17.886;2024-01-30T02:05:00;102118.84;;;2.02;86.39
70833;BME280;71099;59.528;17.886;2024-01-30T02:07:27;102123.16;;;2.02;86.32
70833;BME280;71099;59.528;17.886;2024-01-30T02:09:53;102126.56;;;2.01;86.23
70833;BME280;71099;59.528;17.886;2024-01-30T02:12:18;102125.72;;;2.00;86.31
70833;BME280;71099;59.528;17.886;2024-01-30T02:14:47;102119.03;;;1.98;86.27
70833;BME280;71099;59.528;17.886;2024-01-30T02:17:15;102119.13;;;1.94;86.14
70833;BME280;71099;59.528;17.886;2024-01-30T02:19:40;102114.09;;;1.93;86.25
70833;BME280;71099;59.528;17.886;2024-01-30T02:22:07;102112.44;;;1.92;85.77
70833;BME280;71099;59.528;17.886;2024-01-30T02:24:33;102116.78;;;1.88;86.20
70833;BME280;71099;59.528;17.886;2024-01-30T02:26:58;102116.78;;;1.88;86.28
70833;BME280;71099;59.528;17.886;2024-01-30T02:29:24;102114.25;;;1.88;86.07
70833;BME280;71099;59.528;17.886;2024-01-30T02:31:49;102109.31;;;1.84;86.36
70833;BME280;71099;59.528;17.886;2024-01-30T02:34:15;102117.78;;;1.84;86.24
70833;BME280;71099;59.528;17.886;2024-01-30T02:36:43;102121.22;;;1.83;86.06
70833;BME280;71099;59.528;17.886;2024-01-30T02:39:09;102122.09;;;1.82;86.21
70833;BME280;71099;59.528;17.886;2024-01-30T02:41:35;102117.13;;;1.79;86.18
70833;BME280;71099;59.528;17.886;2024-01-30T02:44:01;102120.78;;;1.71;86.07
70833;BME280;71099;59.528;17.886;2024-01-30T02:46:26;102122.81;;;1.61;86.31
70833;BME280;71099;59.528;17.886;2024-01-30T02:48:52;102128.09;;;1.55;86.53
70833;BME280;71099;59.528;17.886;2024-01-30T02:51:17;102131.63;;;1.51;86.72
70833;BME280;71099;59.528;17.886;2024-01-30T02:53:42;102127.44;;;1.50;86.93
70833;BME280;71099;59.528;17.886;2024-01-30T02:56:08;102132.44;;;1.52;87.24
70833;BME280;71099;59.528;17.886;2024-01-30T02:58:38;102128.16;;;1.54;87.10
70833;BME280;71099;59.528;17.886;2024-01-30T03:01:04;102124.69;;;1.56;86.94
70833;BME280;71099;59.528;17.886;2024-01-30T03:03:29;102122.03;;;1.59;87.16
70833;BME280;71099;59.528;17.886;2024-01-30T03:05:55;102121.16;;;1.60;87.12
70833;BME280;71099;59.528;17.886;2024-01-30T03:08:20;102126.25;;;1.60;87.29
70833;BME280;71099;59.528;17.886;2024-01-30T03:10:46;102113.75;;;1.54;87.38
70833;BME280;71099;59.528;17.886;2024-01-30T03:13:11;102116.94;;;1.59;87.61
70833;BME280;71099;59.528;17.886;2024-01-30T03:15:37;102119.38;;;1.62;87.31
70833;BME280;71099;59.528;17.886;2024-01-30T03:18:02;102119.38;;;1.62;87.40
70833;BME280;71099;59.528;17.886;2024-01-30T03:20:31;102121.16;;;1.60;87.46
70833;BME280;71099;59.528;17.886;2024-01-30T03:22:57;102121.16;;;1.60;86.98
70833;BME280;71099;59.528;17.886;2024-01-30T03:25:24;102122.81;;;1.61;87.48
70833;BME280;71099;59.528;17.886;2024-01-30T03:27:50;102116.09;;;1.59;87.39
70833;BME280;71099;59.528;17.886;2024-01-30T03:30:16;102128.72;;;1.62;87.62
70833;BME280;71099;59.528;17.886;2024-01-30T03:32:42;102132.16;;;1.61;87.16
70833;BME280;71099;59.528;17.886;2024-01-30T03:35:08;102136.41;;;1.60;87.09
70833;BME280;71099;59.528;17.886;2024-01-30T03:37:33;102138.13;;;1.60;87.49
70833;BME280;71099;59.528;17.886;2024-01-30T03:39:59;102131.44;;;1.57;87.24
70833;BME280;71099;59.528;17.886;2024-01-30T03:42:24;102142.69;;;1.50;87.24
70833;BME280;71099;59.528;17.886;2024-01-30T03:44:50;102138.88;;;1.37;87.29
70833;BME280;71099;59.528;17.886;2024-01-30T03:47:18;102137.94;;;1.39;87.54
70833;BME280;71099;59.528;17.886;2024-01-30T03:49:44;102136.56;;;1.29;87.78
70833;BME280;71099;59.528;17.886;2024-01-30T03:52:10;102137.50;;;1.27;88.14
70833;BME280;71099;59.528;17.886;2024-01-30T03:54:35;102130.63;;;1.29;87.82
70833;BME280;71099;59.528;17.886;2024-01-30T03:57:00;102138.44;;;1.24;87.73
70833;BME280;71099;59.528;17.886;2024-01-30T03:59:26;102137.78;;;1.18;88.48
70833;BME280;71099;59.528;17.886;2024-01-30T04:01:51;102137.59;;;1.24;88.49
70833;BME280;71099;59.528;17.886;2024-01-30T04:04:20;102135.81;;;1.26;88.10
70833;BME280;71099;59.528;17.886;2024-01-30T04:06:46;102135.78;;;1.27;88.34
70833;BME280;71099;59.528;17.886;2024-01-30T04:09:12;102136.56;;;1.29;88.51
70833;BME280;71099;59.528;17.886;2024-01-30T04:11:39;102137.28;;;1.33;88.19
70833;BME280;71099;59.528;17.886;2024-01-30T04:14:04;102133.97;;;1.31;88.11
70833;BME280;71099;59.528;17.886;2024-01-30T04:16:29;102137.59;;;1.24;88.34
70833;BME280;71099;59.528;17.886;2024-01-30T04:18:56;102141.09;;;1.20;88.28
70833;BME280;71099;59.528;17.886;2024-01-30T04:21:22;102136.06;;;1.18;88.81
70833;BME280;71099;59.528;17.886;2024-01-30T04:23:48;102143.66;;;1.20;88.55
70833;BME280;71099;59.528;17.886;2024-01-30T04:26:14;102136.13;;;1.17;88.33
70833;BME280;71099;59.528;17.886;2024-01-30T04:28:41;102136.22;;;1.14;88.80
70833;BME280;71099;59.528;17.886;2024-01-30T04:31:07;102132.78;;;1.15;88.90
70833;BME280;71099;59.528;17.886;2024-01-30T04:33:32;102134.44;;;1.16;88.99
70833;BME280;71099;59.528;17.886;2024-01-30T04:35:57;102140.28;;;1.19;89.01
70833;BME280;71099;59.528;17.886;2024-01-30T04:38:23;102126.69;;;1.20;88.49
70833;BME280;71099;59.528;17.886;2024-01-30T04:40:48;102125.84;;;1.20;88.80
70833;BME280;71099;59.528;17.886;2024-01-30T04:43:14;102129.16;;;1.22;88.67
70833;BME280;71099;59.528;17.886;2024-01-30T04:45:41;102125.75;;;1.23;88.76
70833;BME280;71099;59.528;17.886;2024-01-30T04:48:06;102123.09;;;1.26;89.08
70833;BME280;71099;59.528;17.886;2024-01-30T04:50:32;102121.41;;;1.26;88.97
70833;BME280;71099;59.528;17.886;2024-01-30T04:52:57;102117.16;;;1.27;88.80
70833;BME280;71099;59.528;17.886;2024-01-30T04:55:22;102110.34;;;1.27;88.40
70833;BME280;71099;59.528;17.886;2024-01-30T04:57:48;102112.03;;;1.28;88.78
70833;BME280;71099;59.528;17.886;2024-01-30T05:00:13;102105.22;;;1.29;88.49
70833;BME280;71099;59.528;17.886;2024-01-30T05:02:39;102106.16;;;1.26;88.87
70833;BME280;71099;59.528;17.886;2024-01-30T05:05:04;102106.03;;;1.29;88.53
70833;BME280;71099;59.528;17.886;2024-01-30T05:07:30;102118.72;;;1.31;88.11
70833;BME280;71099;59.528;17.886;2024-01-30T05:09:55;102117.16;;;1.27;88.32
70833;BME280;71099;59.528;17.886;2024-01-30T05:12:21;102118.00;;;1.27;88.35
70833;BME280;71099;59.528;17.886;2024-01-30T05:14:46;102115.59;;;1.23;88.18
70833;BME280;71099;59.528;17.886;2024-01-30T05:17:12;102119.94;;;1.19;88.14
70833;BME280;71099;59.528;17.886;2024-01-30T05:19:38;102125.84;;;1.20;87.79
70833;BME280;71099;59.528;17.886;2024-01-30T05:22:04;102131.88;;;1.17;88.09
70833;BME280;71099;59.528;17.886;2024-01-30T05:24:29;102131.19;;;1.12;87.45
70833;BME280;71099;59.528;17.886;2024-01-30T05:26:54;102126.31;;;1.05;87.52
70833;BME280;71099;59.528;17.886;2024-01-30T05:29:21;102136.53;;;1.03;87.89
70833;BME280;71099;59.528;17.886;2024-01-30T05:31:47;102139.00;;;1.06;87.35
70833;BME280;71099;59.528;17.886;2024-01-30T05:34:12;102143.19;;;1.07;88.17
70833;BME280;71099;59.528;17.886;2024-01-30T05:36:38;102138.16;;;1.06;87.84
70833;BME280;71099;59.528;17.886;2024-01-30T05:39:03;102140.59;;;1.09;87.45
70833;BME280;71099;59.528;17.886;2024-01-30T05:41:29;102142.31;;;1.08;87.80
70833;BME280;71099;59.528;17.886;2024-01-30T05:43:54;102137.22;;;1.08;87.69
70833;BME280;71099;59.528;17.886;2024-01-30T05:46:22;102136.38;;;1.09;87.51
70833;BME280;71099;59.528;17.886;2024-01-30T05:48:48;102134.66;;;1.10;87.97
70833;BME280;71099;59.528;17.886;2024-01-30T05:51:13;102130.44;;;1.09;87.86
70833;BME280;71099;59.528;17.886;2024-01-30T05:53:39;102133.81;;;1.09;87.57
70833;BME280;71099;59.528;17.886;2024-01-30T05:56:04;102122.81;;;1.09;87.64
70833;BME280;71099;59.528;17.886;2024-01-30T05:58:30;102137.22;;;1.08;88.16
70833;BME280;71099;59.528;17.886;2024-01-30T06:00:58;102128.13;;;1.01;87.61
70833;BME280;71099;59.528;17.886;2024-01-30T06:03:23;102134.91;;;1.01;87.63
70833;BME280;71099;59.528;17.886;2024-01-30T06:05:49;102122.22;;;1.01;87.64
70833;BME280;71099;59.528;17.886;2024-01-30T06:08:14;102118.00;;;0.99;88.10
70833;BME280;71099;59.528;17.886;2024-01-30T06:10:40;102119.66;;;1.01;88.17
70833;BME280;71099;59.528;17.886;2024-01-30T06:13:06;102119.66;;;1.01;88.36
70833;BME280;71099;59.528;17.886;2024-01-30T06:15:31;102116.25;;;1.02;87.99
70833;BME280;71099;59.528;17.886;2024-01-30T06:17:58;102112.03;;;1.01;87.95
70833;BME280;71099;59.528;17.886;2024-01-30T06:20:23;102105.28;;;0.99;88.14
70833;BME280;71099;59.528;17.886;2024-01-30T06:22:49;102109.59;;;0.97;87.55
70833;BME280;71099;59.528;17.886;2024-01-30T06:25:14;102117.44;;;0.90;87.71
70833;BME280;71099;59.528;17.886;2024-01-30T06:27:39;102115.03;;;0.85;87.26
70833;BME280;71099;59.528;17.886;2024-01-30T06:30:05;102118.47;;;0.84;87.62
70833;BME280;71099;59.528;17.886;2024-01-30T06:32:35;102114.16;;;0.86;87.74
70833;BME280;71099;59.528;17.886;2024-01-30T06:35:01;102114.16;;;0.86;87.26
70833;BME280;71099;59.528;17.886;2024-01-30T06:37:27;102106.66;;;0.83;87.69
70833;BME280;71099;59.528;17.886;2024-01-30T06:39:52;102113.41;;;0.84;87.47
70833;BME280;71099;59.528;17.886;2024-01-30T06:42:18;102113.41;;;0.84;87.51
70833;BME280;71099;59.528;17.886;2024-01-30T06:44:43;102120.13;;;0.85;87.91
70833;BME280;71099;59.528;17.886;2024-01-30T06:47:09;102121.78;;;0.86;87.11
70833;BME280;71099;59.528;17.886;2024-01-30T06:49:35;102116.72;;;0.86;87.70
70833;BME280;71099;59.528;17.886;2024-01-30T06:52:06;102125.22;;;0.85;87.77
70833;BME280;71099;59.528;17.886;2024-01-30T06:54:32;102130.28;;;0.85;87.45
70833;BME280;71099;59.528;17.886;2024-01-30T06:56:58;102130.28;;;0.85;87.78
70833;BME280;71099;59.528;17.886;2024-01-30T06:59:23;102123.72;;;0.78;87.58
70833;BME280;71099;59.528;17.886;2024-01-30T07:01:49;102131.25;;;0.81;87.42
70833;BME280;71099;59.528;17.886;2024-01-30T07:04:14;102126.97;;;0.83;87.96
70833;BME280;71099;59.528;17.886;2024-01-30T07:06:40;102130.28;;;0.85;88.07
70833;BME280;71099;59.528;17.886;2024-01-30T07:09:05;102109.97;;;0.85;87.96
70833;BME280;71099;59.528;17.886;2024-01-30T07:11:32;102117.59;;;0.85;88.07
70833;BME280;71099;59.528;17.886;2024-01-30T07:13:57;102109.09;;;0.86;88.31
70833;BME280;71099;59.528;17.886;2024-01-30T07:16:23;102102.31;;;0.87;88.18
70833;BME280;71099;59.528;17.886;2024-01-30T07:18:49;102103.13;;;0.87;88.45
70833;BME280;71099;59.528;17.886;2024-01-30T07:21:15;102107.38;;;0.87;88.30
70833;BME280;71099;59.528;17.886;2024-01-30T07:23:40;102103.13;;;0.87;88.07
70833;BME280;71099;59.528;17.886;2024-01-30T07:26:07;102104.78;;;0.88;88.16
70833;BME280;71099;59.528;17.886;2024-01-30T07:28:34;102101.38;;;0.89;88.19
70833;BME280;71099;59.528;17.886;2024-01-30T07:31:00;102106.56;;;0.86;88.15
70833;BME280;71099;59.528;17.886;2024-01-30T07:33:26;102108.31;;;0.84;88.08
70833;BME280;71099;59.528;17.886;2024-01-30T07:35:54;102109.97;;;0.85;88.53
70833;BME280;71099;59.528;17.886;2024-01-30T07:38:20;102101.44;;;0.88;88.43
70833;BME280;71099;59.528;17.886;2024-01-30T07:40:45;102101.38;;;0.89;88.47
70833;BME280;71099;59.528;17.886;2024-01-30T07:43:11;102093.75;;;0.89;88.58
70833;BME280;71099;59.528;17.886;2024-01-30T07:45:36;102095.34;;;0.92;88.85
70833;BME280;71099;59.528;17.886;2024-01-30T07:48:05;102100.44;;;0.92;88.49
70833;BME280;71099;59.528;17.886;2024-01-30T07:50:30;102095.34;;;0.92;88.82
70833;BME280;71099;59.528;17.886;2024-01-30T07:52:56;102099.56;;;0.93;88.65
70833;BME280;71099;59.528;17.886;2024-01-30T07:55:22;102098.69;;;0.94;88.56
70833;BME280;71099;59.528;17.886;2024-01-30T07:57:54;102099.53;;;0.94;88.92
70833;BME280;71099;59.528;17.886;2024-01-30T08:00:20;102102.22;;;0.90;88.92
70833;BME280;71099;59.528;17.886;2024-01-30T08:02:46;102097.31;;;0.84;89.32
70833;BME280;71099;59.528;17.886;2024-01-30T08:05:11;102098.16;;;0.84;89.36
70833;BME280;71099;59.528;17.886;2024-01-30T08:07:37;102100.63;;;0.86;89.15
70833;BME280;71099;59.528;17.886;2024-01-30T08:10:02;102099.03;;;0.83;88.55
70833;BME280;71099;59.528;17.886;2024-01-30T08:12:28;102093.13;;;0.81;89.20
70833;BME280;71099;59.528;17.886;2024-01-30T08:14:54;102091.41;;;0.83;89.52
70833;BME280;71099;59.528;17.886;2024-01-30T08:17:19;102094.63;;;0.88;89.23
70833;BME280;71099;59.528;17.886;2024-01-30T08:19:44;102096.28;;;0.89;88.85
70833;BME280;71099;59.528;17.886;2024-01-30T08:22:10;102094.53;;;0.91;88.80
70833;BME280;71099;59.528;17.886;2024-01-30T08:24:35;102086.84;;;0.93;88.66
70833;BME280;71099;59.528;17.886;2024-01-30T08:27:00;102090.94;;;0.98;89.06
70833;BME280;71099;59.528;17.886;2024-01-30T08:29:27;102077.31;;;0.99;88.71
70833;BME280;71099;59.528;17.886;2024-01-30T08:31:53;102087.31;;;1.06;89.32
70833;BME280;71099;59.528;17.886;2024-01-30T08:34:20;102088.97;;;1.07;89.27
70833;BME280;71099;59.528;17.886;2024-01-30T08:36:46;102084.69;;;1.09;89.47
70833;BME280;71099;59.528;17.886;2024-01-30T08:39:11;102071.09;;;1.10;88.96
70833;BME280;71099;59.528;17.886;2024-01-30T08:41:36;102083.59;;;1.16;89.16
70833;BME280;71099;59.528;17.886;2024-01-30T08:44:02;102086.13;;;1.17;89.06
70833;BME280;71099;59.528;17.886;2024-01-30T08:46:28;102065.03;;;1.14;89.27
70833;BME280;71099;59.528;17.886;2024-01-30T08:48:53;102076.69;;;1.21;89.04
70833;BME280;71099;59.528;17.886;2024-01-30T08:51:19;102081.75;;;1.21;89.15
70833;BME280;71099;59.528;17.886;2024-01-30T08:53:44;102076.56;;;1.24;88.90
70833;BME280;71099;59.528;17.886;2024-01-30T08:56:09;102078.31;;;1.22;88.96
70833;BME280;71099;59.528;17.886;2024-01-30T08:58:35;102084.97;;;1.26;89.37
70833;BME280;71099;59.528;17.886;2024-01-30T09:01:00;102074.78;;;1.26;89.50
70833;BME280;71099;59.528;17.886;2024-01-30T09:03:26;102079.78;;;1.29;89.96
70833;BME280;71099;59.528;17.886;2024-01-30T09:05:52;102072.97;;;1.29;89.43
70833;BME280;71099;59.528;17.886;2024-01-30T09:08:18;102069.56;;;1.30;89.71
70833;BME280;71099;59.528;17.886;2024-01-30T09:10:43;102079.50;;;1.38;89.80
70833;BME280;71099;59.528;17.886;2024-01-30T09:13:09;102067.75;;;1.34;89.59
70833;BME280;71099;59.528;17.886;2024-01-30T09:15:35;102070.78;;;1.45;89.56
70833;BME280;71099;59.528;17.886;2024-01-30T09:18:00;102068.03;;;1.51;89.78
70833;BME280;71099;59.528;17.886;2024-01-30T09:20:26;102070.50;;;1.54;89.95
70833;BME280;71099;59.528;17.886;2024-01-30T09:22:51;102069.44;;;1.60;89.92
70833;BME280;71099;59.528;17.886;2024-01-30T09:25:17;102064.31;;;1.61;89.58
70833;BME280;71099;59.528;17.886;2024-01-30T09:27:44;102066.63;;;1.67;89.63
70833;BME280;71099;59.528;17.886;2024-01-30T09:30:09;102059.00;;;1.67;89.60
70833;BME280;71099;59.528;17.886;2024-01-30T09:32:35;102059.69;;;1.72;89.68
70833;BME280;71099;59.528;17.886;2024-01-30T09:35:00;102056.22;;;1.73;89.76
70833;BME280;71099;59.528;17.886;2024-01-30T09:37:25;102056.13;;;1.76;89.62
70833;BME280;71099;59.528;17.886;2024-01-30T09:39:51;102047.50;;;1.80;89.52
70833;BME280;71099;59.528;17.886;2024-01-30T09:42:34;102050.72;;;1.85;89.41
70833;BME280;71099;59.528;17.886;2024-01-30T09:45:04;102040.53;;;1.85;89.51
70833;BME280;71099;59.528;17.886;2024-01-30T09:47:39;102042.00;;;1.92;89.36
70833;BME280;71099;59.528;17.886;2024-01-30T09:50:06;102043.53;;;1.96;89.29
70833;BME280;71099;59.528;17.886;2024-01-30T09:52:32;102039.22;;;1.98;90.04
70833;BME280;71099;59.528;17.886;2024-01-30T09:54:59;102034.91;;;2.01;89.32
70833;BME280;71099;59.528;17.886;2024-01-30T09:57:25;102035.56;;;2.06;89.08
70833;BME280;71099;59.528;17.886;2024-01-30T09:59:51;102032.94;;;2.09;89.72
70833;BME280;71099;59.528;17.886;2024-01-30T10:02:19;102026.03;;;2.11;89.09
70833;BME280;71099;59.528;17.886;2024-01-30T10:04:47;102019.97;;;2.15;89.06
70833;BME280;71099;59.528;17.886;2024-01-30T10:07:13;102027.47;;;2.18;89.09
70833;BME280;71099;59.528;17.886;2024-01-30T10:09:39;102026.53;;;2.20;89.15
70833;BME280;71099;59.528;17.886;2024-01-30T10:12:06;102031.47;;;2.25;89.37
70833;BME280;71099;59.528;17.886;2024-01-30T10:14:31;102025.38;;;2.29;89.09
70833;BME280;71099;59.528;17.886;2024-01-30T10:16:57;102032.00;;;2.33;89.36
70833;BME280;71099;59.528;17.886;2024-01-30T10:19:23;102031.91;;;2.36;89.03
70833;BME280;71099;59.528;17.886;2024-01-30T10:21:48;102028.47;;;2.37;89.22
70833;BME280;71099;59.528;17.886;2024-01-30T10:24:14;102028.34;;;2.40;88.99
70833;BME280;71099;59.528;17.886;2024-01-30T10:26:39;102016.47;;;2.39;89.27
70833;BME280;71099;59.528;17.886;2024-01-30T10:29:05;102016.31;;;2.43;88.91
70833;BME280;71099;59.528;17.886;2024-01-30T10:31:31;102019.53;;;2.49;88.87
70833;BME280;71099;59.528;17.886;2024-01-30T10:33:56;102010.81;;;2.54;89.52
70833;BME280;71099;59.528;17.886;2024-01-30T10:36:28;102008.13;;;2.57;89.23
70833;BME280;71099;59.528;17.886;2024-01-30T10:38:55;102009.69;;;2.61;89.01
70833;BME280;71099;59.528;17.886;2024-01-30T10:41:27;102005.28;;;2.65;89.60
70833;BME280;71099;59.528;17.886;2024-01-30T10:44:04;102000.03;;;2.69;89.79
70833;BME280;71099;59.528;17.886;2024-01-30T10:46:33;101996.47;;;2.73;89.55
70833;BME280;71099;59.528;17.886;2024-01-30T10:49:01;101985.38;;;2.74;89.83
70833;BME280;71099;59.528;17.886;2024-01-30T10:51:27;101991.13;;;2.79;89.44
70833;BME280;71099;59.528;17.886;2024-01-30T10:53:53;101986.72;;;2.83;89.40
70833;BME280;71099;59.528;17.886;2024-01-30T10:56:24;101987.44;;;2.86;89.60
70833;BME280;71099;59.528;17.886;2024-01-30T10:58:50;101988.97;;;2.90;89.79
70833;BME280;71099;59.528;17.886;2024-01-30T11:01:19;101985.53;;;2.91;89.43
70833;BME280;71099;59.528;17.886;2024-01-30T11:03:45;101977.72;;;2.96;89.87
70833;BME280;71099;59.528;17.886;2024-01-30T11:06:11;101975.91;;;2.98;89.69
70833;BME280;71099;59.528;17.886;2024-01-30T11:08:39;101963.16;;;2.98;89.83
70833;BME280;71099;59.528;17.886;2024-01-30T11:11:08;101959.03;;;2.95;89.82
70833;BME280;71099;59.528;17.886;2024-01-30T11:13:35;101952.22;;;2.96;89.77
70833;BME280;71099;59.528;17.886;2024-01-30T11:16:04;101952.06;;;2.99;89.86
70833;BME280;71099;59.528;17.886;2024-01-30T11:18:31;101958.00;;;3.00;89.52
70833;BME280;71099;59.528;17.886;2024-01-30T11:20:58;101954.69;;;2.97;89.57
70833;BME280;71099;59.528;17.886;2024-01-30T11:23:25;101956.34;;;2.99;89.87
70833;BME280;71099;59.528;17.886;2024-01-30T11:25:52;101954.06;;;2.92;89.77
70833;BME280;71099;59.528;17.886;2024-01-30T11:28:20;101941.94;;;2.97;90.11
70833;BME280;71099;59.528;17.886;2024-01-30T11:30:46;101925.47;;;3.05;90.06
70833;BME280;71099;59.528;17.886;2024-01-30T11:33:14;101926.19;;;3.08;89.97
70833;BME280;71099;59.528;17.886;2024-01-30T11:35:43;101927.78;;;3.11;90.08
70833;BME280;71099;59.528;17.886;2024-01-30T11:38:15;101928.41;;;3.16;90.38
70833;BME280;71099;59.528;17.886;2024-01-30T11:40:41;101929.22;;;3.16;89.88
70833;BME280;71099;59.528;17.886;2024-01-30T11:43:08;101930.91;;;3.17;90.44
70833;BME280;71099;59.528;17.886;2024-01-30T11:45:35;101926.63;;;3.18;90.73
70833;BME280;71099;59.528;17.886;2024-01-30T11:48:02;101919.03;;;3.16;90.05
70833;BME280;71099;59.528;17.886;2024-01-30T11:50:32;101921.41;;;3.21;90.81
70833;BME280;71099;59.528;17.886;2024-01-30T11:52:59;101909.41;;;3.23;90.38
70833;BME280;71099;59.528;17.886;2024-01-30T11:55:25;101915.13;;;3.28;89.89
70833;BME280;71099;59.528;17.886;2024-01-30T11:57:50;101907.34;;;3.31;90.44
70833;BME280;71099;59.528;17.886;2024-01-30T12:00:17;101914.81;;;3.35;90.80
70833;BME280;71099;59.528;17.886;2024-01-30T12:02:53;101903.53;;;3.41;90.50
70833;BME280;71099;59.528;17.886;2024-01-30T12:05:23;101900.88;;;3.42;90.65
70833;BME280;71099;59.528;17.886;2024-01-30T12:07:49;101904.97;;;3.47;90.82
70833;BME280;71099;59.528;17.886;2024-01-30T12:10:15;101898.13;;;3.47;90.87
70833;BME280;71099;59.528;17.886;2024-01-30T12:12:42;101900.53;;;3.50;90.87
70833;BME280;71099;59.528;17.886;2024-01-30T12:15:08;101884.19;;;3.54;90.47
70833;BME280;71099;59.528;17.886;2024-01-30T12:17:34;101884.16;;;3.56;90.63
70833;BME280;71099;59.528;17.886;2024-01-30T12:20:14;101887.38;;;3.59;90.62
70833;BME280;71099;59.528;17.886;2024-01-30T12:22:44;101889.03;;;3.60;90.38
70833;BME280;71099;59.528;17.886;2024-01-30T12:25:10;101886.41;;;3.62;89.64
70833;BME280;71099;59.528;17.886;2024-01-30T12:27:37;101889.66;;;3.65;90.54
70833;BME280;71099;59.528;17.886;2024-01-30T12:30:10;101880.19;;;3.67;90.11
70833;BME280;71099;59.528;17.886;2024-01-30T12:32:40;101878.41;;;3.69;90.18
70833;BME280;71099;59.528;17.886;2024-01-30T12:35:14;101869.78;;;3.72;90.33
70833;BME280;71099;59.528;17.886;2024-01-30T12:37:40;101870.56;;;3.74;90.71
70833;BME280;71099;59.528;17.886;2024-01-30T12:40:07;101863.63;;;3.76;90.24
70833;BME280;71099;59.528;17.886;2024-01-30T12:42:33;101862.66;;;3.78;90.68
70833;BME280;71099;59.528;17.886;2024-01-30T12:44:59;101860.88;;;3.80;90.41